createdAt,value
2022-12-19T00:01:04.290Z,94.37
2022-12-19T00:04:10.364Z,93.96
2022-12-19T00:07:13.180Z,93.75
2022-12-19T00:10:16.304Z,93.92
2022-12-19T00:13:18.879Z,93.75
2022-12-19T00:16:27.867Z,95.17
2022-12-19T00:19:30.744Z,95.79
2022-12-19T00:22:33.898Z,96.14
2022-12-19T00:25:36.736Z,96.68
2022-12-19T00:28:47.855Z,96.25
2022-12-19T00:31:50.579Z,96.12
2022-12-19T00:34:53.936Z,95.75
2022-12-19T00:37:56.827Z,95.92
2022-12-19T00:41:11.102Z,95.95
2022-12-19T00:44:14.700Z,96.04
2022-12-19T00:47:17.919Z,96.67
2022-12-19T00:50:21.031Z,95.92
2022-12-19T00:53:24.258Z,95.31
2022-12-19T00:56:36.192Z,95.26
2022-12-19T00:59:42.859Z,95.41
2022-12-19T01:02:45.953Z,95.51
2022-12-19T01:05:51.072Z,96.03
2022-12-19T01:08:55.145Z,95.77
2022-12-19T01:12:17.621Z,95.83
2022-12-19T01:15:21.258Z,95.89
2022-12-19T01:18:25.353Z,95.91
2022-12-19T01:21:28.221Z,96.23
2022-12-19T01:24:31.440Z,96.36
2022-12-19T01:27:34.402Z,96.00
2022-12-19T01:30:40.167Z,96.51
2022-12-19T01:33:43.098Z,96.59
2022-12-19T01:36:48.400Z,96.71
2022-12-19T01:39:51.144Z,96.21
2022-12-19T01:42:54.188Z,95.55
2022-12-19T01:46:06.924Z,95.26
2022-12-19T01:49:32.352Z,95.08
2022-12-19T01:52:35.395Z,95.01
2022-12-19T01:55:40.065Z,95.12
2022-12-19T01:58:46.668Z,95.31
2022-12-19T02:01:53.219Z,95.20
2022-12-19T02:04:57.923Z,95.55
2022-12-19T02:08:01.456Z,95.74
2022-12-19T02:11:05.842Z,95.97
2022-12-19T02:14:10.165Z,95.96
2022-12-19T02:17:53.367Z,97.46
2022-12-19T02:21:15.005Z,97.81
2022-12-19T02:24:33.445Z,97.73
2022-12-19T02:27:53.892Z,97.21
2022-12-19T02:31:17.381Z,96.89
2022-12-19T02:34:59.518Z,97.83
2022-12-19T02:38:12.858Z,98.77
2022-12-19T02:41:27.720Z,97.92
2022-12-19T02:44:43.038Z,97.03
2022-12-19T02:47:47.050Z,96.87
2022-12-19T02:50:50.628Z,96.76
2022-12-19T02:53:53.892Z,96.66
2022-12-19T02:57:24.221Z,96.72
2022-12-19T03:00:34.677Z,96.84
2022-12-19T03:03:51.521Z,97.69
2022-12-19T03:07:09.749Z,97.25
2022-12-19T03:10:27.649Z,96.85
2022-12-19T03:13:59.295Z,96.90
2022-12-19T03:17:05.093Z,97.27
2022-12-19T03:20:21.706Z,97.57
2022-12-19T03:23:24.840Z,97.88
2022-12-19T03:26:36.621Z,98.81
2022-12-19T03:29:44.000Z,99.82
2022-12-19T03:32:47.993Z,100.00
2022-12-19T03:35:52.700Z,99.90
2022-12-19T03:38:56.592Z,98.90
2022-12-19T03:42:19.286Z,98.22
2022-12-19T03:45:27.378Z,97.94
2022-12-19T03:48:51.285Z,98.01
2022-12-19T03:52:04.920Z,98.00
2022-12-19T03:55:33.994Z,97.80
2022-12-19T03:58:39.029Z,97.76
2022-12-19T04:01:43.145Z,97.58
2022-12-19T04:04:51.383Z,97.37
2022-12-19T04:07:56.970Z,97.20
2022-12-19T04:11:05.518Z,97.06
2022-12-19T04:14:12.193Z,96.95
2022-12-19T04:17:35.269Z,96.99
2022-12-19T04:20:41.892Z,97.62
2022-12-19T04:23:52.563Z,97.71
2022-12-19T04:26:56.371Z,97.54
2022-12-19T04:30:00.181Z,97.39
2022-12-19T04:33:03.168Z,97.53
2022-12-19T04:36:06.807Z,98.22
2022-12-19T04:39:09.705Z,98.87
2022-12-19T04:42:12.988Z,98.83
2022-12-19T04:45:16.842Z,99.70
2022-12-19T04:48:21.375Z,100.00
2022-12-19T04:51:24.290Z,100.00
2022-12-19T04:54:28.392Z,100.00
2022-12-19T04:57:32.336Z,100.00
2022-12-19T05:00:35.789Z,100.00
2022-12-19T05:03:38.748Z,99.84
2022-12-19T05:06:42.080Z,98.36
2022-12-19T05:09:45.009Z,96.79
2022-12-19T05:12:48.330Z,96.10
2022-12-19T05:16:04.820Z,96.37
2022-12-19T05:19:08.556Z,98.30
2022-12-19T05:22:12.763Z,99.45
2022-12-19T05:25:16.062Z,100.00
2022-12-19T05:28:20.119Z,100.00
2022-12-19T05:31:23.406Z,100.00
2022-12-19T05:34:26.427Z,100.00
2022-12-19T05:37:29.652Z,100.00
2022-12-19T05:40:32.572Z,99.84
2022-12-19T05:43:35.897Z,99.43
2022-12-19T05:46:39.174Z,99.02
2022-12-19T05:49:42.382Z,96.83
2022-12-19T05:52:45.277Z,97.11
2022-12-19T05:55:48.466Z,97.67
2022-12-19T05:58:51.392Z,97.53
2022-12-19T06:01:55.704Z,97.59
2022-12-19T06:04:59.125Z,97.77
2022-12-19T06:08:02.373Z,97.96
2022-12-19T06:11:07.122Z,98.20
2022-12-19T06:14:10.070Z,98.56
2022-12-19T06:17:13.289Z,98.21
2022-12-19T06:20:16.160Z,98.11
2022-12-19T06:23:19.230Z,97.94
2022-12-19T06:26:22.703Z,97.85
2022-12-19T06:29:25.832Z,97.89
2022-12-19T06:32:30.479Z,97.73
2022-12-19T06:35:46.693Z,97.64
2022-12-19T06:38:52.156Z,97.65
2022-12-19T06:42:15.146Z,97.76
2022-12-19T06:45:18.679Z,97.68
2022-12-19T06:48:21.910Z,97.78
2022-12-19T06:51:24.812Z,97.45
2022-12-19T06:54:28.311Z,97.23
2022-12-19T06:57:31.205Z,97.06
2022-12-19T07:00:37.221Z,96.68
2022-12-19T07:03:41.226Z,96.55
2022-12-19T07:06:49.015Z,96.17
2022-12-19T07:09:52.161Z,96.12
2022-12-19T07:12:55.529Z,96.27
2022-12-19T07:16:01.329Z,96.54
2022-12-19T07:19:05.264Z,96.23
2022-12-19T07:22:09.774Z,95.94
2022-12-19T07:25:13.083Z,96.27
2022-12-19T07:28:17.013Z,96.07
2022-12-19T07:31:20.324Z,95.77
2022-12-19T07:34:23.289Z,95.52
2022-12-19T07:37:26.537Z,94.86
2022-12-19T07:40:29.480Z,94.15
2022-12-19T07:43:32.661Z,94.07
2022-12-19T07:46:35.899Z,93.57
2022-12-19T07:49:39.090Z,92.45
2022-12-19T07:52:42.463Z,92.50
2022-12-19T07:55:45.713Z,92.80
2022-12-19T07:58:48.660Z,93.03
2022-12-19T08:01:52.422Z,92.69
2022-12-19T08:04:55.770Z,92.58
2022-12-19T08:07:58.943Z,92.63
2022-12-19T08:11:22.395Z,92.41
2022-12-19T08:14:25.363Z,92.52
2022-12-19T08:17:28.726Z,92.36
2022-12-19T08:20:31.703Z,92.22
2022-12-19T08:23:34.999Z,92.07
2022-12-19T08:26:41.839Z,91.33
2022-12-19T08:29:47.390Z,90.22
2022-12-19T08:32:50.363Z,89.69
2022-12-19T08:35:54.249Z,90.64
2022-12-19T08:38:57.543Z,89.17
2022-12-19T08:42:01.356Z,89.00
2022-12-19T08:45:05.022Z,88.91
2022-12-19T08:48:21.117Z,88.73
2022-12-19T08:51:24.614Z,87.74
2022-12-19T08:54:27.831Z,87.30
2022-12-19T08:57:30.799Z,85.94
2022-12-19T09:00:34.140Z,86.39
2022-12-19T09:03:44.061Z,84.82
2022-12-19T09:07:00.678Z,84.85
2022-12-19T09:10:04.301Z,83.31
2022-12-19T09:13:08.942Z,83.57
2022-12-19T09:16:20.902Z,83.12
2022-12-19T09:19:24.099Z,82.36
2022-12-19T09:22:27.783Z,81.62
2022-12-19T09:25:32.890Z,81.67
2022-12-19T09:28:36.661Z,81.25
2022-12-19T09:31:40.251Z,81.48
2022-12-19T09:34:43.168Z,81.23
2022-12-19T09:37:46.323Z,80.29
2022-12-19T09:41:07.655Z,81.43
2022-12-19T09:44:30.125Z,80.85
2022-12-19T09:47:34.327Z,81.32
2022-12-19T09:51:10.653Z,80.50
2022-12-19T09:54:19.173Z,79.16
2022-12-19T09:57:40.175Z,79.47
2022-12-19T10:00:48.728Z,78.98
2022-12-19T10:04:04.005Z,77.29
2022-12-19T10:07:31.491Z,77.60
2022-12-19T10:12:37.533Z,76.90
2022-12-19T10:14:47.230Z,76.80
2022-12-19T10:18:16.645Z,76.43
2022-12-19T10:21:59.065Z,75.77
2022-12-19T10:25:09.413Z,74.48
2022-12-19T10:28:36.026Z,74.28
2022-12-19T10:31:59.859Z,73.50
2022-12-19T10:35:05.598Z,72.89
2022-12-19T10:38:23.103Z,72.58
2022-12-19T10:41:32.619Z,72.47
2022-12-19T10:44:38.845Z,72.24
2022-12-19T10:47:43.949Z,72.21
2022-12-19T10:50:47.364Z,73.11
2022-12-19T10:53:59.622Z,72.99
2022-12-19T10:57:24.164Z,71.64
2022-12-19T11:00:28.231Z,73.25
2022-12-19T11:03:37.366Z,71.79
2022-12-19T11:06:57.056Z,73.06
2022-12-19T11:10:36.855Z,73.57
2022-12-19T11:19:02.518Z,74.55
2022-12-19T11:23:55.952Z,73.62
2022-12-19T11:29:25.901Z,72.53
2022-12-19T11:29:40.718Z,70.65
2022-12-19T11:29:54.359Z,70.94
2022-12-19T11:34:49.662Z,68.17
2022-12-19T11:38:00.361Z,67.30
2022-12-19T11:41:15.231Z,67.33
2022-12-19T11:44:27.948Z,64.49
2022-12-19T11:47:53.521Z,61.11
2022-12-19T11:51:32.403Z,59.44
2022-12-19T11:54:41.873Z,57.12
2022-12-19T11:57:45.835Z,56.68
2022-12-19T12:01:05.991Z,56.16
2022-12-19T12:04:40.653Z,54.82
2022-12-19T12:09:46.155Z,52.86
2022-12-19T12:16:13.436Z,53.02
2022-12-19T12:26:33.538Z,52.98
2022-12-19T12:31:20.310Z,51.19
2022-12-19T12:31:26.087Z,54.69
2022-12-19T12:31:43.406Z,49.61
2022-12-19T12:31:51.872Z,47.79
2022-12-19T12:35:41.443Z,46.61
2022-12-19T12:41:02.119Z,46.52
2022-12-19T12:44:10.349Z,46.29
2022-12-19T12:47:39.813Z,46.85
2022-12-19T12:50:42.842Z,47.54
2022-12-19T12:53:47.237Z,47.80
2022-12-19T12:56:50.103Z,46.36
2022-12-19T13:00:19.394Z,48.97
2022-12-19T13:03:25.298Z,49.46
2022-12-19T13:06:41.997Z,49.17
2022-12-19T13:09:45.861Z,48.18
2022-12-19T13:12:59.994Z,49.32
2022-12-19T13:16:41.230Z,47.83
2022-12-19T13:19:54.817Z,46.48
2022-12-19T13:23:00.403Z,45.74
2022-12-19T13:26:04.039Z,46.75
2022-12-19T13:29:59.180Z,47.70
2022-12-19T13:33:02.255Z,48.89
2022-12-19T13:38:47.798Z,51.04
2022-12-19T13:40:11.050Z,52.46
2022-12-19T13:43:49.041Z,53.07
2022-12-19T13:46:52.258Z,53.59
2022-12-19T13:49:55.991Z,57.10
2022-12-19T13:52:59.499Z,57.59
2022-12-19T13:56:05.557Z,59.05
2022-12-19T13:59:09.897Z,60.90
2022-12-19T14:02:28.225Z,62.78
2022-12-19T14:06:15.001Z,63.47
2022-12-19T14:10:24.026Z,64.37
2022-12-19T14:13:43.628Z,65.79
2022-12-19T14:16:17.513Z,67.10
2022-12-19T14:19:29.036Z,68.42
2022-12-19T14:22:32.777Z,68.95
2022-12-19T14:28:20.708Z,70.78
2022-12-19T14:30:28.908Z,71.74
2022-12-19T14:33:46.086Z,73.12
2022-12-19T14:36:27.132Z,74.21
2022-12-19T14:39:35.665Z,75.87
2022-12-19T14:43:59.410Z,76.13
2022-12-19T14:52:35.169Z,77.35
2022-12-19T14:54:24.478Z,79.02
2022-12-19T14:54:47.598Z,79.67
2022-12-19T14:57:01.563Z,80.55
2022-12-19T15:01:07.516Z,81.30
2022-12-19T15:04:49.607Z,82.51
2022-12-19T15:07:25.869Z,83.46
2022-12-19T15:11:03.942Z,83.28
2022-12-19T15:14:53.359Z,84.05
2022-12-19T15:17:24.636Z,84.92
2022-12-19T15:20:27.601Z,85.24
2022-12-19T15:23:32.868Z,85.96
2022-12-19T15:26:42.024Z,86.44
2022-12-19T15:29:49.863Z,87.27
2022-12-19T15:32:53.367Z,86.92
2022-12-19T15:35:56.247Z,86.96
2022-12-19T15:39:00.325Z,87.04
2022-12-19T15:42:03.645Z,87.32
2022-12-19T15:45:08.142Z,87.87
2022-12-19T15:48:17.167Z,87.96
2022-12-19T15:51:20.330Z,88.31
2022-12-19T15:54:48.643Z,88.23
2022-12-19T15:57:48.648Z,88.10
2022-12-19T16:00:58.150Z,88.88
2022-12-19T16:04:03.560Z,88.75
2022-12-19T16:07:15.063Z,88.44
2022-12-19T16:10:18.504Z,88.47
2022-12-19T16:13:27.595Z,89.03
2022-12-19T16:16:30.857Z,88.67
2022-12-19T16:19:33.903Z,88.95
2022-12-19T16:22:38.918Z,88.90
2022-12-19T16:25:52.014Z,89.19
2022-12-19T16:28:55.260Z,89.13
2022-12-19T16:31:58.347Z,88.69
2022-12-19T16:35:01.572Z,88.20
2022-12-19T16:38:04.522Z,88.85
2022-12-19T16:41:23.927Z,89.01
2022-12-19T16:44:26.874Z,88.73
2022-12-19T16:47:30.132Z,88.66
2022-12-19T16:50:33.407Z,88.89
2022-12-19T16:53:36.647Z,89.09
2022-12-19T16:56:41.926Z,89.11
2022-12-19T16:59:46.509Z,89.15
2022-12-19T17:02:57.552Z,89.14
2022-12-19T17:06:01.367Z,89.33
2022-12-19T17:09:04.053Z,89.26
2022-12-19T17:12:10.050Z,89.18
2022-12-19T17:15:29.637Z,88.94
2022-12-19T17:18:35.373Z,89.05
2022-12-19T17:21:40.813Z,89.57
2022-12-19T17:24:46.801Z,89.40
2022-12-19T17:27:52.129Z,89.47
2022-12-19T17:30:57.930Z,89.05
2022-12-19T17:34:00.749Z,88.87
2022-12-19T17:37:05.457Z,88.60
2022-12-19T17:40:16.856Z,88.86
2022-12-19T17:43:20.822Z,88.94
2022-12-19T17:46:25.863Z,88.34
2022-12-19T17:49:32.186Z,88.60
2022-12-19T17:52:37.122Z,88.32
2022-12-19T17:55:40.301Z,87.51
2022-12-19T17:58:44.966Z,87.88
2022-12-19T18:01:48.413Z,87.64
2022-12-19T18:04:52.703Z,87.82
2022-12-19T18:07:55.984Z,88.24
2022-12-19T18:11:02.276Z,87.93
2022-12-19T18:14:05.117Z,87.82
2022-12-19T18:17:12.388Z,88.18
2022-12-19T18:20:31.799Z,87.44
2022-12-19T18:23:35.758Z,87.67
2022-12-19T18:26:39.966Z,87.93
2022-12-19T18:29:43.251Z,88.19
2022-12-19T18:32:55.625Z,88.14
2022-12-19T18:35:59.233Z,88.36
2022-12-19T18:39:02.244Z,89.21
2022-12-19T18:42:19.695Z,89.19
2022-12-19T18:45:26.715Z,89.81
2022-12-19T18:48:33.175Z,89.40
2022-12-19T18:51:37.100Z,89.07
2022-12-19T18:54:40.425Z,89.93
2022-12-19T18:57:45.529Z,90.10
2022-12-19T19:00:51.990Z,89.67
2022-12-19T19:03:59.803Z,89.39
2022-12-19T19:07:02.896Z,89.39
2022-12-19T19:10:35.899Z,88.92
2022-12-19T19:13:40.740Z,89.76
2022-12-19T19:16:44.247Z,89.37
2022-12-19T19:19:47.782Z,88.69
2022-12-19T19:22:54.449Z,88.79
2022-12-19T19:25:58.385Z,87.89
2022-12-19T19:29:03.125Z,88.37
2022-12-19T19:32:06.692Z,88.73
2022-12-19T19:35:11.173Z,88.05
2022-12-19T19:38:17.022Z,88.41
2022-12-19T19:41:21.405Z,88.95
2022-12-19T19:44:26.998Z,88.23
2022-12-19T19:47:32.496Z,89.18
2022-12-19T19:50:36.658Z,88.97
2022-12-19T19:53:40.845Z,88.98
2022-12-19T19:56:44.902Z,88.38
2022-12-19T19:59:49.396Z,88.94
2022-12-19T20:02:53.156Z,88.90
2022-12-19T20:06:01.306Z,89.34
2022-12-19T20:09:13.484Z,88.98
2022-12-19T20:12:18.213Z,88.74
2022-12-19T20:15:21.243Z,88.50
2022-12-19T20:18:24.711Z,88.25
2022-12-19T20:21:29.611Z,88.17
2022-12-19T20:24:32.955Z,88.14
2022-12-19T20:27:36.206Z,87.33
2022-12-19T20:30:39.573Z,87.27
2022-12-19T20:33:42.775Z,87.56
2022-12-19T20:36:46.768Z,87.58
2022-12-19T20:39:49.818Z,86.73
2022-12-19T20:42:52.847Z,87.21
2022-12-19T20:46:04.524Z,86.27
2022-12-19T20:49:09.822Z,87.16
2022-12-19T20:52:13.030Z,87.98
2022-12-19T20:55:16.711Z,88.12
2022-12-19T20:58:19.834Z,88.88
2022-12-19T21:01:24.639Z,88.73
2022-12-19T21:04:28.046Z,88.41
2022-12-19T21:07:32.460Z,88.68
2022-12-19T21:10:35.739Z,90.01
2022-12-19T21:13:39.831Z,89.64
2022-12-19T21:16:42.917Z,88.60
2022-12-19T21:19:46.191Z,88.48
2022-12-19T21:22:49.291Z,88.50
2022-12-19T21:25:53.168Z,88.26
2022-12-19T21:28:58.185Z,87.81
2022-12-19T21:32:01.564Z,89.23
2022-12-19T21:35:05.547Z,88.93
2022-12-19T21:38:09.350Z,89.25
2022-12-19T21:41:12.791Z,89.38
2022-12-19T21:44:15.917Z,89.88
2022-12-19T21:47:18.884Z,89.82
2022-12-19T21:50:22.084Z,89.34
2022-12-19T21:53:25.893Z,89.65
2022-12-19T21:56:34.613Z,88.53
2022-12-19T21:59:37.550Z,89.33
2022-12-19T22:02:50.830Z,88.15
2022-12-19T22:06:04.896Z,89.15
2022-12-19T22:09:10.891Z,88.85
2022-12-19T22:12:14.547Z,88.22
2022-12-19T22:15:17.676Z,88.77
2022-12-19T22:18:20.968Z,88.32
2022-12-19T22:21:24.496Z,88.71
2022-12-19T22:24:28.893Z,88.62
2022-12-19T22:27:31.907Z,88.57
2022-12-19T22:30:36.107Z,87.88
2022-12-19T22:33:39.123Z,87.39
2022-12-19T22:36:44.403Z,88.75
2022-12-19T22:39:47.431Z,88.67
2022-12-19T22:42:52.271Z,88.43
2022-12-19T22:45:55.635Z,88.06
2022-12-19T22:49:01.676Z,88.42
2022-12-19T22:52:04.877Z,88.30
2022-12-19T22:55:08.494Z,88.38
2022-12-19T22:58:12.019Z,88.71
2022-12-19T23:01:26.593Z,89.06
2022-12-19T23:04:31.076Z,89.54
2022-12-19T23:07:35.655Z,89.47
2022-12-19T23:10:38.722Z,89.20
2022-12-19T23:13:42.555Z,89.27
2022-12-19T23:16:45.717Z,89.05
2022-12-19T23:19:49.129Z,89.48
2022-12-19T23:22:52.547Z,89.34
2022-12-19T23:25:55.899Z,89.07
2022-12-19T23:29:01.490Z,88.86
2022-12-19T23:32:05.066Z,89.35
2022-12-19T23:35:08.472Z,89.03
2022-12-19T23:38:12.051Z,89.22
2022-12-19T23:41:16.179Z,89.18
2022-12-19T23:44:19.777Z,88.63
2022-12-19T23:47:23.518Z,88.91
2022-12-19T23:50:26.803Z,89.45
2022-12-19T23:53:30.793Z,89.70
2022-12-19T23:56:35.396Z,89.85
2022-12-19T23:59:38.249Z,89.95
